createdAt,value
2018-11-22T00:05:51.898Z,90.80
2018-11-22T00:14:58.055Z,90.90
2018-11-22T00:18:03.564Z,90.90
2018-11-22T00:27:15.077Z,90.90
2018-11-22T00:30:02.863Z,90.90
2018-11-22T00:32:50.380Z,90.90
2018-11-22T00:35:38.027Z,90.90
2018-11-22T00:38:25.633Z,91.20
2018-11-22T00:41:13.157Z,90.80
2018-11-22T00:46:54.958Z,90.90
2018-11-22T00:50:18.547Z,90.90
2018-11-22T00:53:06.224Z,91.00
2018-11-22T00:59:23.666Z,90.70
2018-11-22T01:02:11.169Z,90.90
2018-11-22T01:04:58.718Z,90.80
2018-11-22T01:07:46.403Z,90.90
2018-11-22T01:10:34.099Z,90.90
2018-11-22T01:13:21.602Z,90.80
2018-11-22T01:23:06.442Z,90.80
2018-11-22T01:25:53.980Z,90.70
2018-11-22T01:28:41.721Z,90.80
2018-11-22T01:31:47.432Z,90.90
2018-11-22T01:35:12.228Z,90.90
2018-11-22T01:47:12.645Z,90.80
2018-11-22T01:50:00.337Z,90.90
2018-11-22T01:52:47.876Z,90.80
2018-11-22T01:55:35.453Z,90.80
2018-11-22T01:58:23.473Z,90.80
2018-11-22T02:01:11.061Z,90.70
2018-11-22T02:06:52.078Z,90.80
2018-11-22T02:12:33.345Z,90.70
2018-11-22T02:15:40.257Z,90.70
2018-11-22T02:18:27.776Z,90.60
2018-11-22T02:21:15.394Z,90.60
2018-11-22T02:24:02.912Z,90.60
2018-11-22T02:26:50.438Z,90.50
2018-11-22T02:29:37.986Z,90.50
2018-11-22T02:32:44.820Z,90.70
2018-11-22T02:35:32.383Z,90.70
2018-11-22T02:38:37.959Z,90.60
2018-11-22T02:41:43.445Z,90.60
2018-11-22T02:47:24.431Z,90.50
2018-11-22T02:50:12.651Z,90.50
2018-11-22T02:53:35.920Z,90.60
2018-11-22T02:56:42.320Z,90.60
2018-11-22T02:59:29.881Z,90.50
2018-11-22T03:02:53.679Z,90.50
2018-11-22T03:05:41.297Z,90.60
2018-11-22T03:11:22.715Z,90.50
2018-11-22T03:14:10.588Z,90.50
2018-11-22T03:16:58.138Z,90.40
2018-11-22T03:19:45.671Z,90.50
2018-11-22T03:22:33.192Z,90.40
2018-11-22T03:25:21.282Z,90.30
2018-11-22T03:28:08.767Z,90.30
2018-11-22T03:30:56.494Z,90.40
2018-11-22T03:33:44.234Z,90.30
2018-11-22T03:36:31.984Z,90.40
2018-11-22T03:39:19.572Z,90.40
2018-11-22T03:45:00.459Z,90.40
2018-11-22T03:47:48.405Z,90.40
2018-11-22T03:53:42.962Z,90.50
2018-11-22T03:56:30.821Z,90.40
2018-11-22T03:59:18.672Z,90.40
2018-11-22T04:02:24.444Z,90.50
2018-11-22T04:05:13.497Z,90.40
2018-11-22T04:10:50.216Z,90.30
2018-11-22T04:13:37.715Z,90.20
2018-11-22T04:17:01.103Z,90.30
2018-11-22T04:19:48.845Z,90.40
2018-11-22T04:22:36.402Z,90.30
2018-11-22T04:25:24.195Z,90.30
2018-11-22T04:28:11.752Z,90.40
2018-11-22T04:34:06.867Z,90.50
2018-11-22T04:36:54.414Z,90.50
2018-11-22T04:39:42.100Z,90.40
2018-11-22T04:42:29.738Z,90.40
2018-11-22T04:45:17.713Z,90.50
2018-11-22T04:48:05.480Z,90.40
2018-11-22T04:53:46.667Z,90.40
2018-11-22T04:56:34.440Z,90.30
2018-11-22T04:59:40.098Z,90.30
2018-11-22T05:02:46.322Z,90.40
2018-11-22T05:05:33.839Z,90.60
2018-11-22T05:11:14.863Z,90.30
2018-11-22T05:20:22.386Z,90.30
2018-11-22T05:23:22.362Z,90.40
2018-11-22T05:26:03.491Z,90.10
2018-11-22T05:32:19.053Z,90.40
2018-11-22T05:35:00.253Z,90.10
2018-11-22T05:44:07.741Z,90.30
2018-11-22T05:47:15.322Z,90.30
2018-11-22T05:56:05.531Z,90.20
2018-11-22T06:02:05.889Z,90.40
2018-11-22T06:07:27.839Z,90.30
2018-11-22T06:10:08.911Z,90.40
2018-11-22T06:15:54.275Z,90.40
2018-11-22T06:18:34.615Z,90.40
2018-11-22T06:24:23.225Z,90.50
2018-11-22T06:27:03.786Z,90.20
2018-11-22T06:32:49.665Z,90.00
2018-11-22T06:35:31.426Z,90.00
2018-11-22T06:38:11.867Z,90.00
2018-11-22T06:50:18.598Z,89.30
2018-11-22T06:59:08.449Z,89.70
2018-11-22T07:07:56.238Z,88.90
2018-11-22T07:10:36.931Z,89.00
2018-11-22T07:13:20.915Z,89.20
2018-11-22T07:16:01.313Z,89.10
2018-11-22T07:18:42.354Z,89.30
2018-11-22T07:24:42.235Z,88.50
2018-11-22T07:30:42.426Z,88.50
2018-11-22T07:36:02.878Z,88.80
2018-11-22T07:38:51.545Z,88.70
2018-11-22T07:41:57.678Z,89.10
2018-11-22T07:45:21.277Z,89.20
2018-11-22T07:51:38.218Z,89.10
2018-11-22T08:00:28.025Z,88.30
2018-11-22T08:09:41.686Z,88.00
2018-11-22T08:12:48.448Z,87.60
2018-11-22T08:18:30.200Z,87.70
2018-11-22T08:21:18.591Z,87.30
2018-11-22T08:26:55.003Z,87.10
2018-11-22T08:33:23.821Z,87.20
2018-11-22T08:36:11.356Z,86.70
2018-11-22T08:38:58.964Z,86.50
2018-11-22T08:44:33.403Z,86.60
2018-11-22T08:47:21.160Z,86.30
2018-11-22T08:53:03.991Z,86.20
2018-11-22T08:55:51.691Z,86.30
2018-11-22T08:58:39.246Z,86.40
2018-11-22T09:04:20.481Z,86.40
2018-11-22T09:07:08.287Z,86.40
2018-11-22T09:10:31.853Z,86.40
2018-11-22T09:13:19.495Z,86.30
2018-11-22T09:16:07.035Z,86.40
2018-11-22T09:18:54.648Z,86.60
2018-11-22T09:21:42.199Z,86.10
2018-11-22T09:24:29.999Z,86.30
2018-11-22T09:27:17.529Z,86.30
2018-11-22T09:39:41.742Z,86.40
2018-11-22T09:42:29.467Z,85.90
2018-11-22T09:45:18.679Z,86.30
2018-11-22T09:50:59.299Z,86.20
2018-11-22T09:53:46.953Z,86.10
2018-11-22T09:56:34.486Z,86.00
2018-11-22T09:59:22.180Z,86.10
2018-11-22T10:02:09.580Z,85.80
2018-11-22T10:04:57.737Z,85.90
2018-11-22T10:07:45.182Z,85.00
2018-11-22T10:14:05.215Z,85.40
2018-11-22T10:16:52.784Z,85.90
2018-11-22T10:19:40.756Z,86.00
2018-11-22T10:25:22.135Z,85.90
2018-11-22T10:28:09.766Z,85.80
2018-11-22T10:30:57.318Z,85.70
2018-11-22T10:33:44.924Z,85.80
2018-11-22T10:36:32.737Z,85.10
2018-11-22T10:42:07.094Z,85.40
2018-11-22T10:47:50.256Z,86.00
2018-11-22T10:50:38.385Z,85.70
2018-11-22T10:53:25.881Z,85.80
2018-11-22T10:56:13.772Z,85.10
2018-11-22T10:59:02.031Z,85.30
2018-11-22T11:02:08.891Z,85.20
2018-11-22T11:04:56.749Z,85.30
2018-11-22T11:08:03.569Z,85.10
2018-11-22T11:10:52.108Z,85.30
2018-11-22T11:13:39.979Z,85.90
2018-11-22T11:16:27.510Z,85.90
2018-11-22T11:19:15.074Z,86.20
2018-11-22T11:22:02.628Z,86.40
2018-11-22T11:24:50.490Z,86.10
2018-11-22T11:27:38.588Z,86.20
2018-11-22T11:30:26.285Z,86.10
2018-11-22T11:37:33.446Z,85.60
2018-11-22T11:43:29.157Z,85.70
2018-11-22T11:46:16.725Z,85.80
2018-11-22T11:51:58.598Z,86.30
2018-11-22T11:54:46.169Z,85.90
2018-11-22T11:57:33.878Z,85.90
2018-11-22T12:03:16.096Z,85.80
2018-11-22T12:08:56.869Z,84.10
2018-11-22T12:11:44.520Z,83.50
2018-11-22T12:18:16.144Z,84.20
2018-11-22T12:21:03.723Z,84.40
2018-11-22T12:23:51.339Z,85.30
2018-11-22T12:26:38.927Z,85.30
2018-11-22T12:29:26.475Z,85.10
2018-11-22T12:38:52.426Z,85.90
2018-11-22T12:41:39.973Z,86.00
2018-11-22T12:47:20.813Z,86.00
2018-11-22T12:50:08.738Z,86.00
2018-11-22T12:52:56.269Z,85.80
2018-11-22T12:55:43.867Z,85.90
2018-11-22T12:58:33.871Z,86.00
2018-11-22T13:01:21.405Z,86.00
2018-11-22T13:04:08.962Z,86.20
2018-11-22T13:06:56.552Z,86.10
2018-11-22T13:12:32.986Z,86.10
2018-11-22T13:15:21.411Z,86.70
2018-11-22T13:18:09.119Z,86.70
2018-11-22T13:20:56.747Z,87.00
2018-11-22T13:23:44.298Z,87.00
2018-11-22T13:26:50.185Z,87.00
2018-11-22T13:29:37.572Z,87.00
2018-11-22T13:32:25.129Z,87.20
2018-11-22T13:35:13.448Z,87.30
2018-11-22T13:38:00.980Z,87.40
2018-11-22T13:40:48.615Z,87.50
2018-11-22T13:43:36.121Z,87.60
2018-11-22T13:49:17.348Z,88.00
2018-11-22T13:52:05.308Z,87.70
2018-11-22T13:58:37.375Z,87.50
2018-11-22T14:01:24.874Z,87.60
2018-11-22T14:04:12.730Z,87.90
2018-11-22T14:07:00.498Z,87.80
2018-11-22T14:09:48.223Z,87.80
2018-11-22T14:12:35.835Z,87.90
2018-11-22T14:15:24.829Z,87.90
2018-11-22T14:18:12.364Z,87.90
2018-11-22T14:21:00.379Z,88.10
2018-11-22T14:23:47.982Z,88.30
2018-11-22T14:29:28.839Z,88.00
2018-11-22T14:32:16.431Z,88.20
2018-11-22T14:35:04.082Z,88.50
2018-11-22T14:40:44.823Z,88.80
2018-11-22T14:43:32.486Z,88.90
2018-11-22T14:46:20.065Z,88.80
2018-11-22T14:52:00.639Z,89.20
2018-11-22T14:54:48.293Z,89.40
2018-11-22T14:57:36.401Z,89.00
2018-11-22T15:00:23.954Z,88.80
2018-11-22T15:03:11.589Z,89.40
2018-11-22T15:05:40.107Z,88.40
2018-11-22T15:08:27.686Z,88.70
2018-11-22T15:11:15.534Z,88.40
2018-11-22T15:14:03.037Z,88.90
2018-11-22T15:16:51.377Z,89.00
2018-11-22T15:19:20.293Z,88.90
2018-11-22T15:21:48.377Z,88.50
2018-11-22T15:24:36.139Z,88.30
2018-11-22T15:27:24.028Z,88.50
2018-11-22T15:30:22.401Z,88.80
2018-11-22T15:33:15.975Z,88.90
2018-11-22T15:38:37.826Z,88.40
2018-11-22T15:41:06.091Z,88.60
2018-11-22T15:43:53.681Z,88.90
2018-11-22T15:49:49.069Z,89.00
2018-11-22T15:52:55.339Z,89.20
2018-11-22T15:55:43.446Z,89.60
2018-11-22T15:58:31.034Z,89.30
2018-11-22T16:04:12.428Z,89.30
2018-11-22T16:07:00.325Z,89.60
2018-11-22T16:10:26.773Z,89.10
2018-11-22T16:13:12.924Z,89.40
2018-11-22T16:16:03.097Z,88.80
2018-11-22T16:18:50.624Z,88.90
2018-11-22T16:21:38.156Z,88.80
2018-11-22T16:24:25.752Z,88.90
2018-11-22T16:27:13.262Z,88.80
2018-11-22T16:30:20.020Z,89.10
2018-11-22T16:33:07.573Z,88.70
2018-11-22T16:38:48.144Z,88.80
2018-11-22T16:44:29.779Z,88.90
2018-11-22T16:47:17.636Z,89.30
2018-11-22T16:50:05.676Z,89.00
2018-11-22T16:55:46.677Z,89.10
2018-11-22T16:58:34.242Z,89.30
2018-11-22T17:01:27.473Z,89.30
2018-11-22T17:04:09.466Z,89.20
2018-11-22T17:06:57.114Z,89.30
2018-11-22T17:09:44.662Z,89.80
2018-11-22T17:12:32.161Z,89.80
2018-11-22T17:15:20.888Z,89.50
2018-11-22T17:18:08.796Z,89.40
2018-11-22T17:20:56.748Z,89.60
2018-11-22T17:23:44.477Z,89.70
2018-11-22T17:29:25.923Z,89.30
2018-11-22T17:34:48.478Z,90.10
2018-11-22T17:37:36.103Z,90.20
2018-11-22T17:40:42.854Z,90.30
2018-11-22T17:46:24.441Z,90.10
2018-11-22T17:49:12.172Z,90.20
2018-11-22T17:54:41.592Z,90.30
2018-11-22T17:57:22.269Z,90.30
2018-11-22T18:00:21.990Z,90.30
2018-11-22T18:03:02.946Z,90.40
2018-11-22T18:05:43.339Z,90.50
2018-11-22T18:08:23.723Z,90.70
2018-11-22T18:11:04.695Z,90.70
2018-11-22T18:13:45.368Z,90.90
2018-11-22T18:16:26.408Z,90.80
2018-11-22T18:19:07.021Z,90.70
2018-11-22T18:21:48.242Z,90.70
2018-11-22T18:24:29.226Z,90.80
2018-11-22T18:27:10.099Z,90.80
2018-11-22T18:29:51.140Z,90.90
2018-11-22T18:32:31.843Z,91.10
2018-11-22T18:38:31.322Z,91.20
2018-11-22T18:44:30.331Z,91.20
2018-11-22T18:47:11.059Z,91.10
2018-11-22T18:49:51.894Z,91.00
2018-11-22T18:52:32.466Z,90.90
2018-11-22T18:55:13.550Z,90.90
2018-11-22T18:57:54.019Z,90.90
2018-11-22T19:00:36.542Z,90.90
2018-11-22T19:03:17.854Z,90.90
2018-11-22T19:05:58.460Z,90.90
2018-11-22T19:08:24.951Z,91.00
2018-11-22T19:11:12.569Z,91.00
2018-11-22T19:14:00.074Z,91.10
2018-11-22T19:16:47.832Z,91.00
2018-11-22T19:19:35.305Z,90.90
2018-11-22T19:22:23.159Z,90.90
2018-11-22T19:25:10.820Z,91.20
2018-11-22T19:27:59.281Z,91.20
2018-11-22T19:30:47.670Z,91.20
2018-11-22T19:44:57.242Z,91.20
2018-11-22T19:47:44.812Z,91.40
2018-11-22T19:50:32.577Z,91.40
2018-11-22T19:56:13.573Z,91.30
2018-11-22T19:59:01.164Z,91.40
2018-11-22T20:01:48.907Z,91.40
2018-11-22T20:07:29.951Z,91.80
2018-11-22T20:10:19.053Z,91.30
2018-11-22T20:13:06.881Z,91.10
2018-11-22T20:15:54.334Z,90.90
2018-11-22T20:18:42.775Z,90.90
2018-11-22T20:21:30.304Z,90.80
2018-11-22T20:24:18.292Z,90.80
2018-11-22T20:27:05.793Z,90.80
2018-11-22T20:29:53.670Z,90.80
2018-11-22T20:32:41.626Z,91.00
2018-11-22T20:35:30.010Z,91.20
2018-11-22T20:38:54.531Z,91.40
2018-11-22T20:41:42.235Z,91.50
2018-11-22T20:44:29.785Z,91.50
2018-11-22T20:47:18.063Z,91.40
2018-11-22T20:50:42.970Z,91.30
2018-11-22T21:02:49.147Z,91.20
2018-11-22T21:08:30.018Z,91.20
2018-11-22T21:11:17.609Z,91.30
2018-11-22T21:14:05.895Z,91.40
2018-11-22T21:16:53.671Z,91.40
2018-11-22T21:19:41.231Z,91.40
2018-11-22T21:22:28.814Z,91.20
2018-11-22T21:25:17.840Z,91.30
2018-11-22T21:30:59.303Z,91.40
2018-11-22T21:36:22.112Z,91.20
2018-11-22T21:39:10.503Z,91.30
2018-11-22T21:41:58.032Z,91.40
2018-11-22T21:48:18.936Z,91.20
2018-11-22T21:51:06.937Z,90.90
2018-11-22T21:56:28.427Z,90.80
2018-11-22T22:02:27.756Z,90.50
2018-11-22T22:05:15.456Z,90.60
2018-11-22T22:08:03.575Z,90.50
2018-11-22T22:10:51.093Z,90.60
2018-11-22T22:13:39.271Z,90.50
2018-11-22T22:16:27.085Z,90.60
2018-11-22T22:19:14.757Z,90.60
2018-11-22T22:22:02.545Z,90.60
2018-11-22T22:24:50.067Z,90.60
2018-11-22T22:30:32.269Z,90.70
2018-11-22T22:33:20.054Z,90.80
2018-11-22T22:36:07.571Z,90.90
2018-11-22T22:41:48.562Z,90.80
2018-11-22T22:44:36.139Z,90.80
2018-11-22T22:47:23.638Z,90.80
2018-11-22T22:50:13.249Z,90.80
2018-11-22T22:53:01.238Z,90.80
2018-11-22T22:58:42.657Z,90.60
2018-11-22T23:04:23.213Z,90.50
2018-11-22T23:07:10.837Z,90.60
2018-11-22T23:09:58.445Z,90.70
2018-11-22T23:12:46.561Z,90.70
2018-11-22T23:15:34.327Z,90.70
2018-11-22T23:18:22.005Z,90.70
2018-11-22T23:21:09.522Z,90.60
2018-11-22T23:23:57.309Z,90.50
2018-11-22T23:26:44.946Z,90.60
2018-11-22T23:29:32.468Z,90.60
2018-11-22T23:32:20.227Z,90.50
2018-11-22T23:35:08.352Z,90.50
2018-11-22T23:37:55.913Z,90.60
2018-11-22T23:43:36.695Z,90.70
2018-11-22T23:46:24.629Z,90.80
2018-11-22T23:49:12.131Z,90.80
2018-11-22T23:54:53.023Z,90.60
2018-11-22T23:57:40.948Z,90.60
